No particular awareness of the weather is required.    There are no Weather-warnings


Meteo18 Weather Cam more information Meteo18 Weather Cam


Thunder radar more information blitzortung!


Rain radar more information rain snow radar


Visit our other weather sites:

Template documentation
and downloads

And another site



Weather Underground History page Text

Daily Summary for September 25, 2017 Units:  Both    English   Metric
« Previous Day
Next Day »
Daily Weekly Monthly Yearly Custom
  High: Low: Average:
Temperature: 61.2 °F /  16.2 °C 54.5 °F /  12.5 °C 58.6 °F /  14.8 °C
Dew Point: 59.4 °F /  15.2 °C 51.4 °F /  10.8 °C 55.6 °F /  13.1 °C
Humidity: 97 % 79 % 90 %
Wind Speed: 10 mph /  16.1 km/h - 1.5 mph /  2.4 km/h
Wind Gust: 16 mph /  25.7 km/h - -
Wind:- - WSW
Pressure: 30.2 in /  1021.2 hPa 30.1 in /  1017.5 hPa -
Precipitation: 0.48 in /  12.2 mm    
Historical Graphs
 
 
Tabular Data for September 25, 2017
Time Temperature Dew Point Pressure Wind Wind Speed Wind Gust Humidity Rainfall Rate (Hourly)
00:02 61 °F /  16.1 °C 54.5 °F /  12.5 °C 30.1 in /  1019.5 hPa Calm   1 mph /  1.6 km/h 79 % 0 in /  0.0 mm
00:12 60.3 °F /  15.7 °C 54.7 °F /  12.6 °C 30.1 in /  1019.5 hPa Calm   1 mph /  1.6 km/h 82 % 0 in /  0.0 mm
00:17 60.3 °F /  15.7 °C 54.3 °F /  12.4 °C 30.1 in /  1019.5 hPa Calm   1 mph /  1.6 km/h 81 % 0 in /  0.0 mm
00:22 60.4 °F /  15.8 °C 54.3 °F /  12.4 °C 30.1 in /  1019.5 hPa WNW 1 mph /  1.6 km/h 1 mph /  1.6 km/h 80 % 0 in /  0.0 mm
00:32 60.1 °F /  15.6 °C 54 °F /  12.2 °C 30.1 in /  1019.5 hPa Calm   2 mph /  3.2 km/h 80 % 0 in /  0.0 mm
00:37 60.3 °F /  15.7 °C 54.1 °F /  12.3 °C 30.1 in /  1019.5 hPa North 1 mph /  1.6 km/h 2 mph /  3.2 km/h 80 % 0 in /  0.0 mm
00:42 60.4 °F /  15.8 °C 54 °F /  12.2 °C 30.1 in /  1019.5 hPa NNW 1 mph /  1.6 km/h 2 mph /  3.2 km/h 79 % 0 in /  0.0 mm
00:52 60.1 °F /  15.6 °C 53.6 °F /  12.0 °C 30.1 in /  1019.5 hPa Calm   1 mph /  1.6 km/h 79 % 0 in /  0.0 mm
00:57 59.7 °F /  15.4 °C 54.1 °F /  12.3 °C 30.1 in /  1019.5 hPa Calm   1 mph /  1.6 km/h 82 % 0 in /  0.0 mm
01:02 59.2 °F /  15.1 °C 54 °F /  12.2 °C 30.1 in /  1019.5 hPa WNW 1 mph /  1.6 km/h 1 mph /  1.6 km/h 83 % 0 in /  0.0 mm
01:12 58.8 °F /  14.9 °C 54 °F /  12.2 °C 30.1 in /  1019.2 hPa Calm   1 mph /  1.6 km/h 84 % 0 in /  0.0 mm
01:17 58.6 °F /  14.8 °C 53.8 °F /  12.1 °C 30.1 in /  1019.2 hPa WNW 1 mph /  1.6 km/h 1 mph /  1.6 km/h 84 % 0 in /  0.0 mm
01:22 58.8 °F /  14.9 °C 53.6 °F /  12.0 °C 30.1 in /  1019.2 hPa Calm   1 mph /  1.6 km/h 83 % 0 in /  0.0 mm
01:27 59 °F /  15.0 °C 53.6 °F /  12.0 °C 30.1 in /  1019.2 hPa Calm   1 mph /  1.6 km/h 82 % 0 in /  0.0 mm
01:32 58.8 °F /  14.9 °C 53.4 °F /  11.9 °C 30.1 in /  1019.2 hPa Calm   1 mph /  1.6 km/h 82 % 0 in /  0.0 mm
01:42 57.9 °F /  14.4 °C 53.4 °F /  11.9 °C 30.1 in /  1019.2 hPa NW 1 mph /  1.6 km/h 1 mph /  1.6 km/h 85 % 0 in /  0.0 mm
01:47 57.7 °F /  14.3 °C 53.2 °F /  11.8 °C 30.1 in /  1019.2 hPa Calm   2 mph /  3.2 km/h 85 % 0 in /  0.0 mm
01:52 58.1 °F /  14.5 °C 53.2 °F /  11.8 °C 30.1 in /  1019.2 hPa Calm   2 mph /  3.2 km/h 84 % 0 in /  0.0 mm
01:57 58.6 °F /  14.8 °C 53.2 °F /  11.8 °C 30.1 in /  1019.2 hPa Calm   1 mph /  1.6 km/h 82 % 0 in /  0.0 mm
02:02 58.6 °F /  14.8 °C 52.9 °F /  11.6 °C 30.1 in /  1019.2 hPa Calm   1 mph /  1.6 km/h 81 % 0 in /  0.0 mm
02:07 58.6 °F /  14.8 °C 52.9 °F /  11.6 °C 30.1 in /  1018.8 hPa Calm   1 mph /  1.6 km/h 81 % 0 in /  0.0 mm
02:17 57.7 °F /  14.3 °C 52.9 °F /  11.6 °C 30.1 in /  1019.2 hPa Calm   1 mph /  1.6 km/h 84 % 0 in /  0.0 mm
02:22 57.6 °F /  14.2 °C 52.7 °F /  11.5 °C 30.1 in /  1019.2 hPa Calm   1 mph /  1.6 km/h 84 % 0 in /  0.0 mm
02:32 57.7 °F /  14.3 °C 52.7 °F /  11.5 °C 30.1 in /  1019.2 hPa Calm   1 mph /  1.6 km/h 83 % 0 in /  0.0 mm
02:42 57.4 °F /  14.1 °C 52.5 °F /  11.4 °C 30.1 in /  1019.2 hPa Calm   1 mph /  1.6 km/h 84 % 0 in /  0.0 mm
02:47 57 °F /  13.9 °C 52.5 °F /  11.4 °C 30.1 in /  1019.2 hPa Calm   1 mph /  1.6 km/h 85 % 0 in /  0.0 mm
02:52 57 °F /  13.9 °C 52.9 °F /  11.6 °C 30.1 in /  1019.2 hPa Calm   1 mph /  1.6 km/h 86 % 0 in /  0.0 mm
02:57 56.8 °F /  13.8 °C 52.3 °F /  11.3 °C 30.1 in /  1018.8 hPa Calm   1 mph /  1.6 km/h 85 % 0 in /  0.0 mm
03:02 57 °F /  13.9 °C 52.5 °F /  11.4 °C 30.1 in /  1018.8 hPa Calm   1 mph /  1.6 km/h 85 % 0 in /  0.0 mm
03:12 57.4 °F /  14.1 °C 52.5 °F /  11.4 °C 30.1 in /  1018.8 hPa Calm   1 mph /  1.6 km/h 84 % 0 in /  0.0 mm
03:17 56.8 °F /  13.8 °C 52.3 °F /  11.3 °C 30.1 in /  1018.8 hPa Calm     85 % 0 in /  0.0 mm
03:22 56.5 °F /  13.6 °C 52.3 °F /  11.3 °C 30.1 in /  1018.8 hPa Calm     86 % 0 in /  0.0 mm
03:32 56.1 °F /  13.4 °C 52.7 °F /  11.5 °C 30.1 in /  1018.8 hPa Calm     88 % 0 in /  0.0 mm
03:37 55.9 °F /  13.3 °C 52.2 °F /  11.2 °C 30.1 in /  1018.8 hPa Calm     87 % 0 in /  0.0 mm
03:42 55.9 °F /  13.3 °C 52.5 °F /  11.4 °C 30.1 in /  1018.8 hPa Calm     88 % 0 in /  0.0 mm
03:52 56.5 °F /  13.6 °C 52.7 °F /  11.5 °C 30.1 in /  1018.8 hPa North 2 mph /  3.2 km/h   87 % 0 in /  0.0 mm
03:57 57 °F /  13.9 °C 52.2 °F /  11.2 °C 30.1 in /  1018.8 hPa North 1 mph /  1.6 km/h 2 mph /  3.2 km/h 84 % 0 in /  0.0 mm
04:02 56.8 °F /  13.8 °C 52.3 °F /  11.3 °C 30.1 in /  1018.8 hPa Calm   2 mph /  3.2 km/h 85 % 0 in /  0.0 mm
04:12 56.7 °F /  13.7 °C 52.2 °F /  11.2 °C 30.1 in /  1018.8 hPa NNW 1 mph /  1.6 km/h 2 mph /  3.2 km/h 85 % 0 in /  0.0 mm
04:17 57.2 °F /  14.0 °C 52.3 °F /  11.3 °C 30.1 in /  1018.8 hPa Calm   2 mph /  3.2 km/h 84 % 0 in /  0.0 mm
04:27 57.2 °F /  14.0 °C 52.2 °F /  11.2 °C 30.1 in /  1018.8 hPa Calm   2 mph /  3.2 km/h 83 % 0 in /  0.0 mm
04:32 57.4 °F /  14.1 °C 52.5 °F /  11.4 °C 30.1 in /  1018.5 hPa Calm   2 mph /  3.2 km/h 84 % 0 in /  0.0 mm
04:42 58.3 °F /  14.6 °C 52.5 °F /  11.4 °C 30.1 in /  1018.5 hPa Calm   1 mph /  1.6 km/h 81 % 0 in /  0.0 mm
04:47 57.6 °F /  14.2 °C 52.5 °F /  11.4 °C 30.1 in /  1018.5 hPa Calm   1 mph /  1.6 km/h 83 % 0 in /  0.0 mm
04:52 57 °F /  13.9 °C 52.2 °F /  11.2 °C 30.1 in /  1018.5 hPa Calm   1 mph /  1.6 km/h 84 % 0 in /  0.0 mm
05:02 56.8 °F /  13.8 °C 52 °F /  11.1 °C 30.1 in /  1018.5 hPa Calm   1 mph /  1.6 km/h 84 % 0 in /  0.0 mm
05:12 56.8 °F /  13.8 °C 52.3 °F /  11.3 °C 30.1 in /  1018.2 hPa Calm   1 mph /  1.6 km/h 85 % 0 in /  0.0 mm
05:22 56.3 °F /  13.5 °C 52.5 °F /  11.4 °C 30.1 in /  1018.2 hPa Calm   1 mph /  1.6 km/h 87 % 0 in /  0.0 mm
05:32 56.7 °F /  13.7 °C 52.5 °F /  11.4 °C 30.1 in /  1018.2 hPa Calm     86 % 0 in /  0.0 mm
05:42 56.5 °F /  13.6 °C 52 °F /  11.1 °C 30.1 in /  1018.2 hPa Calm     85 % 0 in /  0.0 mm
05:52 56.1 °F /  13.4 °C 52.3 °F /  11.3 °C 30.1 in /  1018.2 hPa Calm     87 % 0 in /  0.0 mm
05:57 56.1 °F /  13.4 °C 52.3 °F /  11.3 °C 30.1 in /  1017.8 hPa Calm     87 % 0 in /  0.0 mm
06:02 56.5 °F /  13.6 °C 52.3 °F /  11.3 °C 30.1 in /  1017.8 hPa Calm     86 % 0 in /  0.0 mm
06:07 55.9 °F /  13.3 °C 51.8 °F /  11.0 °C 30.1 in /  1017.8 hPa Calm     86 % 0 in /  0.0 mm
06:12 55.8 °F /  13.2 °C 52 °F /  11.1 °C 30.1 in /  1017.8 hPa Calm     87 % 0 in /  0.0 mm
06:17 56.1 °F /  13.4 °C 52.3 °F /  11.3 °C 30.1 in /  1017.8 hPa Calm     87 % 0 in /  0.0 mm
06:22 56.5 °F /  13.6 °C 52.3 °F /  11.3 °C 30.1 in /  1017.8 hPa Calm     86 % 0 in /  0.0 mm
06:32 56.5 °F /  13.6 °C 52.3 °F /  11.3 °C 30.1 in /  1017.8 hPa Calm     86 % 0 in /  0.0 mm
06:42 56.1 °F /  13.4 °C 51.6 °F /  10.9 °C 30.1 in /  1017.8 hPa Calm     85 % 0 in /  0.0 mm
06:47 55.8 °F /  13.2 °C 51.6 °F /  10.9 °C 30.1 in /  1017.5 hPa Calm     86 % 0 in /  0.0 mm
06:52 55.9 °F /  13.3 °C 52.2 °F /  11.2 °C 30.1 in /  1017.8 hPa Calm     87 % 0 in /  0.0 mm
06:57 55.6 °F /  13.1 °C 52.2 °F /  11.2 °C 30.1 in /  1017.8 hPa Calm     88 % 0 in /  0.0 mm
07:02 55.2 °F /  12.9 °C 51.8 °F /  11.0 °C 30.1 in /  1017.8 hPa Calm     88 % 0 in /  0.0 mm
07:07 55.6 °F /  13.1 °C 51.8 °F /  11.0 °C 30.1 in /  1017.8 hPa Calm     87 % 0 in /  0.0 mm
07:17 54.9 °F /  12.7 °C 51.6 °F /  10.9 °C 30.1 in /  1017.8 hPa Calm     89 % 0 in /  0.0 mm
07:22 54.7 °F /  12.6 °C 51.4 °F /  10.8 °C 30.1 in /  1017.8 hPa Calm     89 % 0 in /  0.0 mm
07:27 54.7 °F /  12.6 °C 51.8 °F /  11.0 °C 30.1 in /  1018.2 hPa Calm     90 % 0 in /  0.0 mm
07:32 54.7 °F /  12.6 °C 51.4 °F /  10.8 °C 30.1 in /  1018.2 hPa Calm     89 % 0 in /  0.0 mm
07:37 54.5 °F /  12.5 °C 51.6 °F /  10.9 °C 30.1 in /  1017.8 hPa Calm     90 % 0 in /  0.0 mm
07:47 55.4 °F /  13.0 °C 52.2 °F /  11.2 °C 30.1 in /  1017.8 hPa NNE 1 mph /  1.6 km/h   89 % 0 in /  0.0 mm
07:52 55.8 °F /  13.2 °C 52 °F /  11.1 °C 30.1 in /  1017.8 hPa Calm   2 mph /  3.2 km/h 87 % 0 in /  0.0 mm
07:57 55.2 °F /  12.9 °C 51.4 °F /  10.8 °C 30.1 in /  1018.2 hPa NW 1 mph /  1.6 km/h 2 mph /  3.2 km/h 87 % 0 in /  0.0 mm
08:02 55.2 °F /  12.9 °C 52 °F /  11.1 °C 30.1 in /  1018.2 hPa Calm   2 mph /  3.2 km/h 89 % 0 in /  0.0 mm
08:12 55.8 °F /  13.2 °C 52 °F /  11.1 °C 30.1 in /  1018.2 hPa Calm   2 mph /  3.2 km/h 87 % 0 in /  0.0 mm
08:17 55.9 °F /  13.3 °C 52.2 °F /  11.2 °C 30.1 in /  1018.2 hPa Calm   2 mph /  3.2 km/h 87 % 0 in /  0.0 mm
08:22 55.9 °F /  13.3 °C 52.2 °F /  11.2 °C 30.1 in /  1018.2 hPa Calm   1 mph /  1.6 km/h 87 % 0 in /  0.0 mm
08:32 56.5 °F /  13.6 °C 52 °F /  11.1 °C 30.1 in /  1018.2 hPa Calm   1 mph /  1.6 km/h 85 % 0 in /  0.0 mm
08:42 56.8 °F /  13.8 °C 52 °F /  11.1 °C 30.1 in /  1018.2 hPa Calm   1 mph /  1.6 km/h 84 % 0 in /  0.0 mm
08:47 57 °F /  13.9 °C 52 °F /  11.1 °C 30.1 in /  1018.2 hPa Calm   1 mph /  1.6 km/h 83 % 0 in /  0.0 mm
08:52 57.4 °F /  14.1 °C 52.3 °F /  11.3 °C 30.1 in /  1018.2 hPa Calm   1 mph /  1.6 km/h 83 % 0 in /  0.0 mm
08:57 57.6 °F /  14.2 °C 52.5 °F /  11.4 °C 30.1 in /  1018.2 hPa Calm   1 mph /  1.6 km/h 83 % 0 in /  0.0 mm
09:02 57.7 °F /  14.3 °C 52.7 °F /  11.5 °C 30.1 in /  1017.8 hPa Calm     83 % 0 in /  0.0 mm
09:12 57.9 °F /  14.4 °C 52.7 °F /  11.5 °C 30.1 in /  1018.2 hPa Calm     83 % 0 in /  0.0 mm
09:17 58.1 °F /  14.5 °C 52.9 °F /  11.6 °C 30.1 in /  1018.2 hPa Calm     83 % 0 in /  0.0 mm
09:22 58.3 °F /  14.6 °C 52.9 °F /  11.6 °C 30.1 in /  1018.2 hPa Calm   1 mph /  1.6 km/h 82 % 0 in /  0.0 mm
09:27 58.5 °F /  14.7 °C 52.7 °F /  11.5 °C 30.1 in /  1018.2 hPa East 1 mph /  1.6 km/h 1 mph /  1.6 km/h 81 % 0 in /  0.0 mm
09:32 58.6 °F /  14.8 °C 52.9 °F /  11.6 °C 30.1 in /  1018.2 hPa Calm   4 mph /  6.4 km/h 81 % 0 in /  0.0 mm
09:37 58.6 °F /  14.8 °C 52.9 °F /  11.6 °C 30.1 in /  1018.2 hPa Calm   4 mph /  6.4 km/h 81 % 0 in /  0.0 mm
09:42 58.8 °F /  14.9 °C 53.1 °F /  11.7 °C 30.1 in /  1018.2 hPa SSW 2 mph /  3.2 km/h 4 mph /  6.4 km/h 81 % 0 in /  0.0 mm
09:47 58.6 °F /  14.8 °C 52.5 °F /  11.4 °C 30.1 in /  1018.5 hPa SSW 3 mph /  4.8 km/h 4 mph /  6.4 km/h 80 % 0 in /  0.0 mm
09:52 58.6 °F /  14.8 °C 52.9 °F /  11.6 °C 30.1 in /  1018.5 hPa SSE 1 mph /  1.6 km/h 4 mph /  6.4 km/h 81 % 0 in /  0.0 mm
09:57 58.6 °F /  14.8 °C 52.9 °F /  11.6 °C 30.1 in /  1018.5 hPa SW 2 mph /  3.2 km/h 4 mph /  6.4 km/h 81 % 0 in /  0.0 mm
10:02 58.6 °F /  14.8 °C 52.9 °F /  11.6 °C 30.1 in /  1018.8 hPa Calm   4 mph /  6.4 km/h 81 % 0 in /  0.0 mm
10:17 58.5 °F /  14.7 °C 53.2 °F /  11.8 °C 30.1 in /  1018.8 hPa SSW 3 mph /  4.8 km/h 5 mph /  8.0 km/h 83 % 0 in /  0.0 mm
10:22 58.3 °F /  14.6 °C 53.4 °F /  11.9 °C 30.1 in /  1018.8 hPa SW 3 mph /  4.8 km/h 4 mph /  6.4 km/h 84 % 0 in /  0.0 mm
10:32 58.1 °F /  14.5 °C 53.6 °F /  12.0 °C 30.1 in /  1018.8 hPa SSW 2 mph /  3.2 km/h 5 mph /  8.0 km/h 85 % 0 in /  0.0 mm
10:37 58.1 °F /  14.5 °C 53.6 °F /  12.0 °C 30.1 in /  1018.8 hPa Calm   5 mph /  8.0 km/h 85 % 0 in /  0.0 mm
10:42 58.1 °F /  14.5 °C 53.6 °F /  12.0 °C 30.1 in /  1019.2 hPa West 1 mph /  1.6 km/h 4 mph /  6.4 km/h 85 % 0 in /  0.0 mm
10:47 58.1 °F /  14.5 °C 54 °F /  12.2 °C 30.1 in /  1019.2 hPa SW 6 mph /  9.7 km/h 6 mph /  9.7 km/h 86 % 0 in /  0.0 mm
10:52 57.9 °F /  14.4 °C 53.8 °F /  12.1 °C 30.1 in /  1019.5 hPa West 4 mph /  6.4 km/h 7 mph /  11.3 km/h 86 % 0 in /  0.0 mm
10:57 57.7 °F /  14.3 °C 54.5 °F /  12.5 °C 30.1 in /  1019.5 hPa West 6 mph /  9.7 km/h 7 mph /  11.3 km/h 89 % 0 in /  0.0 mm
11:02 57.6 °F /  14.2 °C 55 °F /  12.8 °C 30.1 in /  1019.5 hPa WNW 6 mph /  9.7 km/h 10 mph /  16.1 km/h 91 % 0.05 in /  1.3 mm
11:07 57.6 °F /  14.2 °C 55.6 °F /  13.1 °C 30.1 in /  1019.5 hPa SW 9 mph /  14.5 km/h 10 mph /  16.1 km/h 93 % 0.05 in /  1.3 mm
11:12 57.7 °F /  14.3 °C 55.9 °F /  13.3 °C 30.1 in /  1019.5 hPa West 9 mph /  14.5 km/h 14 mph /  22.5 km/h 94 % 0.18 in /  4.6 mm
11:17 57.9 °F /  14.4 °C 56.1 °F /  13.4 °C 30.1 in /  1019.5 hPa West 5 mph /  8.0 km/h 14 mph /  22.5 km/h 94 % 0.18 in /  4.6 mm
11:22 57.9 °F /  14.4 °C 56.1 °F /  13.4 °C 30.1 in /  1019.5 hPa SW 5 mph /  8.0 km/h 16 mph /  25.7 km/h 94 % 0.28 in /  7.1 mm
11:32 58.3 °F /  14.6 °C 56.5 °F /  13.6 °C 30.1 in /  1019.5 hPa WSW 8 mph /  12.9 km/h 15 mph /  24.1 km/h 94 % 0.28 in /  7.1 mm
11:37 58.3 °F /  14.6 °C 56.5 °F /  13.6 °C 30.1 in /  1019.5 hPa WSW 10 mph /  16.1 km/h 15 mph /  24.1 km/h 94 % 0.28 in /  7.1 mm
11:42 58.3 °F /  14.6 °C 56.5 °F /  13.6 °C 30.1 in /  1019.5 hPa WSW 7 mph /  11.3 km/h 14 mph /  22.5 km/h 94 % 0.3 in /  7.6 mm
11:47 58.3 °F /  14.6 °C 56.5 °F /  13.6 °C 30.1 in /  1019.5 hPa West 6 mph /  9.7 km/h 14 mph /  22.5 km/h 94 % 0.3 in /  7.6 mm
11:52 58.3 °F /  14.6 °C 56.5 °F /  13.6 °C 30.1 in /  1019.5 hPa WSW 7 mph /  11.3 km/h 14 mph /  22.5 km/h 94 % 0.32 in /  8.1 mm
11:57 58.3 °F /  14.6 °C 56.3 °F /  13.5 °C 30.1 in /  1019.5 hPa West 8 mph /  12.9 km/h 14 mph /  22.5 km/h 93 % 0.32 in /  8.1 mm
12:02 58.5 °F /  14.7 °C 56.5 °F /  13.6 °C 30.1 in /  1019.5 hPa West 7 mph /  11.3 km/h 13 mph /  20.9 km/h 93 % 0.29 in /  7.4 mm
12:07 58.5 °F /  14.7 °C 56.5 °F /  13.6 °C 30.1 in /  1019.5 hPa WSW 5 mph /  8.0 km/h 13 mph /  20.9 km/h 93 % 0.29 in /  7.4 mm
12:12 58.5 °F /  14.7 °C 56.5 °F /  13.6 °C 30.1 in /  1019.5 hPa SW 3 mph /  4.8 km/h 15 mph /  24.1 km/h 93 % 0.17 in /  4.3 mm
12:17 58.5 °F /  14.7 °C 56.5 °F /  13.6 °C 30.1 in /  1019.5 hPa West 2 mph /  3.2 km/h 15 mph /  24.1 km/h 93 % 0.17 in /  4.3 mm
12:22 58.5 °F /  14.7 °C 56.5 °F /  13.6 °C 30.1 in /  1019.9 hPa WSW 2 mph /  3.2 km/h 15 mph /  24.1 km/h 93 % 0.13 in /  3.3 mm
12:32 58.6 °F /  14.8 °C 56.8 °F /  13.8 °C 30.1 in /  1019.9 hPa SW 4 mph /  6.4 km/h 8 mph /  12.9 km/h 94 % 0.12 in /  3.0 mm
12:42 58.6 °F /  14.8 °C 56.8 °F /  13.8 °C 30.1 in /  1019.9 hPa WSW 7 mph /  11.3 km/h 9 mph /  14.5 km/h 94 % 0.11 in /  2.8 mm
12:52 58.6 °F /  14.8 °C 56.8 °F /  13.8 °C 30.1 in /  1019.5 hPa WNW 5 mph /  8.0 km/h 9 mph /  14.5 km/h 94 % 0.09 in /  2.3 mm
13:02 58.8 °F /  14.9 °C 57 °F /  13.9 °C 30.1 in /  1019.9 hPa West 6 mph /  9.7 km/h 9 mph /  14.5 km/h 94 % 0.07 in /  1.8 mm
13:12 59.2 °F /  15.1 °C 57.4 °F /  14.1 °C 30.1 in /  1019.5 hPa WSW 5 mph /  8.0 km/h 9 mph /  14.5 km/h 94 % 0.07 in /  1.8 mm
13:22 59.4 °F /  15.2 °C 57.4 °F /  14.1 °C 30.1 in /  1019.9 hPa SW 3 mph /  4.8 km/h 10 mph /  16.1 km/h 93 % 0.04 in /  1.0 mm
13:32 59.5 °F /  15.3 °C 57.6 °F /  14.2 °C 30.1 in /  1019.9 hPa West 3 mph /  4.8 km/h 9 mph /  14.5 km/h 93 % 0.03 in /  0.8 mm
13:42 59.5 °F /  15.3 °C 57.6 °F /  14.2 °C 30.1 in /  1019.9 hPa SSW 1 mph /  1.6 km/h 10 mph /  16.1 km/h 93 % 0.02 in /  0.5 mm
13:47 59.7 °F /  15.4 °C 57.9 °F /  14.4 °C 30.1 in /  1019.9 hPa SSE 2 mph /  3.2 km/h 9 mph /  14.5 km/h 94 % 0.02 in /  0.5 mm
13:57 59.4 °F /  15.2 °C 57.6 °F /  14.2 °C 30.1 in /  1019.9 hPa SW 6 mph /  9.7 km/h 6 mph /  9.7 km/h 94 % 0.02 in /  0.5 mm
14:02 59.4 °F /  15.2 °C 57.6 °F /  14.2 °C 30.1 in /  1019.9 hPa SW 5 mph /  8.0 km/h 5 mph /  8.0 km/h 94 % 0.02 in /  0.5 mm
14:12 59.4 °F /  15.2 °C 57.6 °F /  14.2 °C 30.1 in /  1019.9 hPa WSW 4 mph /  6.4 km/h 6 mph /  9.7 km/h 94 % 0.02 in /  0.5 mm
14:17 59.5 °F /  15.3 °C 57.7 °F /  14.3 °C 30.1 in /  1019.9 hPa WSW 6 mph /  9.7 km/h 6 mph /  9.7 km/h 94 % 0.04 in /  1.0 mm
14:22 59.5 °F /  15.3 °C 57.7 °F /  14.3 °C 30.1 in /  1019.9 hPa SW 3 mph /  4.8 km/h 5 mph /  8.0 km/h 94 % 0.04 in /  1.0 mm
14:27 59.5 °F /  15.3 °C 57.7 °F /  14.3 °C 30.1 in /  1019.9 hPa SW 3 mph /  4.8 km/h 6 mph /  9.7 km/h 94 % 0.04 in /  1.0 mm
14:32 59.5 °F /  15.3 °C 58.1 °F /  14.5 °C 30.1 in /  1019.9 hPa SW 1 mph /  1.6 km/h 6 mph /  9.7 km/h 95 % 0.04 in /  1.0 mm
14:42 60.1 °F /  15.6 °C 58.6 °F /  14.8 °C 30.1 in /  1019.9 hPa SSW 1 mph /  1.6 km/h 5 mph /  8.0 km/h 95 % 0.04 in /  1.0 mm
14:47 60.1 °F /  15.6 °C 58.3 °F /  14.6 °C 30.1 in /  1019.9 hPa SW 2 mph /  3.2 km/h 5 mph /  8.0 km/h 94 % 0.03 in /  0.8 mm
14:52 60.1 °F /  15.6 °C 58.6 °F /  14.8 °C 30.1 in /  1019.9 hPa SW 2 mph /  3.2 km/h 5 mph /  8.0 km/h 95 % 0.03 in /  0.8 mm
14:57 60.3 °F /  15.7 °C 58.8 °F /  14.9 °C 30.1 in /  1019.9 hPa SSW 4 mph /  6.4 km/h 5 mph /  8.0 km/h 95 % 0.02 in /  0.5 mm
15:02 60.3 °F /  15.7 °C 58.8 °F /  14.9 °C 30.1 in /  1019.9 hPa WSW 4 mph /  6.4 km/h 5 mph /  8.0 km/h 95 % 0.02 in /  0.5 mm
15:07 60.4 °F /  15.8 °C 59 °F /  15.0 °C 30.1 in /  1019.9 hPa SW 2 mph /  3.2 km/h 5 mph /  8.0 km/h 95 % 0.01 in /  0.3 mm
15:12 60.4 °F /  15.8 °C 58.6 °F /  14.8 °C 30.1 in /  1019.9 hPa SSW 3 mph /  4.8 km/h 5 mph /  8.0 km/h 94 % 0.01 in /  0.3 mm
15:17 60.4 °F /  15.8 °C 59 °F /  15.0 °C 30.1 in /  1019.9 hPa Calm   6 mph /  9.7 km/h 95 % 0 in /  0.0 mm
15:27 60.6 °F /  15.9 °C 59.2 °F /  15.1 °C 30.1 in /  1019.9 hPa SW 2 mph /  3.2 km/h 5 mph /  8.0 km/h 95 % 0 in /  0.0 mm
15:32 60.6 °F /  15.9 °C 58.8 °F /  14.9 °C 30.1 in /  1019.9 hPa SW 3 mph /  4.8 km/h 5 mph /  8.0 km/h 94 % 0 in /  0.0 mm
15:37 60.8 °F /  16.0 °C 59 °F /  15.0 °C 30.1 in /  1019.9 hPa South 1 mph /  1.6 km/h 4 mph /  6.4 km/h 94 % 0 in /  0.0 mm
15:42 61 °F /  16.1 °C 59.2 °F /  15.1 °C 30.1 in /  1019.9 hPa SSW 1 mph /  1.6 km/h 4 mph /  6.4 km/h 94 % 0 in /  0.0 mm
15:47 61 °F /  16.1 °C 59.2 °F /  15.1 °C 30.1 in /  1019.9 hPa SW 1 mph /  1.6 km/h 4 mph /  6.4 km/h 94 % 0 in /  0.0 mm
15:57 61 °F /  16.1 °C 59.2 °F /  15.1 °C 30.1 in /  1019.9 hPa West 2 mph /  3.2 km/h 4 mph /  6.4 km/h 94 % 0 in /  0.0 mm
16:02 61.2 °F /  16.2 °C 59.4 °F /  15.2 °C 30.1 in /  1019.9 hPa WSW 1 mph /  1.6 km/h 4 mph /  6.4 km/h 94 % 0 in /  0.0 mm
16:12 61.2 °F /  16.2 °C 59.2 °F /  15.1 °C 30.1 in /  1019.9 hPa WSW 2 mph /  3.2 km/h 5 mph /  8.0 km/h 93 % 0 in /  0.0 mm
16:17 61.2 °F /  16.2 °C 59.2 °F /  15.1 °C 30.1 in /  1019.9 hPa West 3 mph /  4.8 km/h 5 mph /  8.0 km/h 93 % 0 in /  0.0 mm
16:22 61.2 °F /  16.2 °C 59.2 °F /  15.1 °C 30.1 in /  1019.9 hPa West 1 mph /  1.6 km/h 5 mph /  8.0 km/h 93 % 0 in /  0.0 mm
16:27 61 °F /  16.1 °C 58.6 °F /  14.8 °C 30.1 in /  1019.9 hPa WNW 4 mph /  6.4 km/h 5 mph /  8.0 km/h 92 % 0 in /  0.0 mm
16:37 61.2 °F /  16.2 °C 58.8 °F /  14.9 °C 30.1 in /  1019.9 hPa West 1 mph /  1.6 km/h 6 mph /  9.7 km/h 92 % 0 in /  0.0 mm
16:42 61.2 °F /  16.2 °C 58.8 °F /  14.9 °C 30.1 in /  1019.9 hPa WSW 2 mph /  3.2 km/h 6 mph /  9.7 km/h 92 % 0 in /  0.0 mm
16:47 61.2 °F /  16.2 °C 59.2 °F /  15.1 °C 30.1 in /  1019.9 hPa SW 2 mph /  3.2 km/h 6 mph /  9.7 km/h 93 % 0 in /  0.0 mm
16:52 61.2 °F /  16.2 °C 58.8 °F /  14.9 °C 30.1 in /  1019.9 hPa WSW 3 mph /  4.8 km/h 6 mph /  9.7 km/h 92 % 0 in /  0.0 mm
17:02 61.2 °F /  16.2 °C 58.8 °F /  14.9 °C 30.1 in /  1019.9 hPa WSW 2 mph /  3.2 km/h 5 mph /  8.0 km/h 92 % 0 in /  0.0 mm
17:07 61.2 °F /  16.2 °C 59.2 °F /  15.1 °C 30.1 in /  1019.9 hPa West 1 mph /  1.6 km/h 5 mph /  8.0 km/h 93 % 0 in /  0.0 mm
17:17 61.2 °F /  16.2 °C 58.8 °F /  14.9 °C 30.1 in /  1019.9 hPa SW 1 mph /  1.6 km/h 5 mph /  8.0 km/h 92 % 0 in /  0.0 mm
17:22 61 °F /  16.1 °C 58.6 °F /  14.8 °C 30.1 in /  1019.9 hPa West 4 mph /  6.4 km/h 5 mph /  8.0 km/h 92 % 0 in /  0.0 mm
17:27 61 °F /  16.1 °C 58.6 °F /  14.8 °C 30.1 in /  1019.9 hPa SW 2 mph /  3.2 km/h 5 mph /  8.0 km/h 92 % 0 in /  0.0 mm
17:32 61 °F /  16.1 °C 58.6 °F /  14.8 °C 30.1 in /  1019.9 hPa SW 2 mph /  3.2 km/h 5 mph /  8.0 km/h 92 % 0 in /  0.0 mm
17:37 61 °F /  16.1 °C 58.6 °F /  14.8 °C 30.1 in /  1019.9 hPa South 2 mph /  3.2 km/h 6 mph /  9.7 km/h 92 % 0 in /  0.0 mm
17:42 61 °F /  16.1 °C 59 °F /  15.0 °C 30.1 in /  1019.9 hPa SW 5 mph /  8.0 km/h 6 mph /  9.7 km/h 93 % 0 in /  0.0 mm
17:47 61 °F /  16.1 °C 59 °F /  15.0 °C 30.1 in /  1019.9 hPa SW 2 mph /  3.2 km/h 6 mph /  9.7 km/h 93 % 0 in /  0.0 mm
17:52 61 °F /  16.1 °C 59 °F /  15.0 °C 30.1 in /  1019.9 hPa SW 3 mph /  4.8 km/h 6 mph /  9.7 km/h 93 % 0 in /  0.0 mm
17:57 60.8 °F /  16.0 °C 58.8 °F /  14.9 °C 30.1 in /  1019.9 hPa WSW 1 mph /  1.6 km/h 6 mph /  9.7 km/h 93 % 0 in /  0.0 mm
18:02 60.6 °F /  15.9 °C 58.6 °F /  14.8 °C 30.1 in /  1020.2 hPa Calm   6 mph /  9.7 km/h 93 % 0 in /  0.0 mm
18:12 60.6 °F /  15.9 °C 58.6 °F /  14.8 °C 30.1 in /  1020.2 hPa SW 2 mph /  3.2 km/h 6 mph /  9.7 km/h 93 % 0 in /  0.0 mm
18:17 60.6 °F /  15.9 °C 58.6 °F /  14.8 °C 30.1 in /  1020.2 hPa Calm   6 mph /  9.7 km/h 93 % 0 in /  0.0 mm
18:22 60.6 °F /  15.9 °C 58.6 °F /  14.8 °C 30.1 in /  1020.2 hPa WNW 2 mph /  3.2 km/h 4 mph /  6.4 km/h 93 % 0 in /  0.0 mm
18:32 60.4 °F /  15.8 °C 58.5 °F /  14.7 °C 30.1 in /  1020.2 hPa West 2 mph /  3.2 km/h 3 mph /  4.8 km/h 93 % 0 in /  0.0 mm
18:37 60.4 °F /  15.8 °C 58.5 °F /  14.7 °C 30.1 in /  1020.2 hPa West 3 mph /  4.8 km/h 3 mph /  4.8 km/h 93 % 0 in /  0.0 mm
18:42 60.4 °F /  15.8 °C 58.6 °F /  14.8 °C 30.1 in /  1020.2 hPa West 2 mph /  3.2 km/h 4 mph /  6.4 km/h 94 % 0 in /  0.0 mm
18:47 60.4 °F /  15.8 °C 58.6 °F /  14.8 °C 30.1 in /  1020.2 hPa SW 2 mph /  3.2 km/h 4 mph /  6.4 km/h 94 % 0 in /  0.0 mm
18:52 60.4 °F /  15.8 °C 58.6 °F /  14.8 °C 30.1 in /  1020.2 hPa WNW 2 mph /  3.2 km/h 5 mph /  8.0 km/h 94 % 0 in /  0.0 mm
18:57 60.4 °F /  15.8 °C 58.6 °F /  14.8 °C 30.1 in /  1020.2 hPa SW 3 mph /  4.8 km/h 6 mph /  9.7 km/h 94 % 0 in /  0.0 mm
19:02 60.4 °F /  15.8 °C 58.6 °F /  14.8 °C 30.1 in /  1020.2 hPa WSW 2 mph /  3.2 km/h 6 mph /  9.7 km/h 94 % 0 in /  0.0 mm
19:12 60.3 °F /  15.7 °C 58.5 °F /  14.7 °C 30.1 in /  1020.2 hPa West 1 mph /  1.6 km/h 6 mph /  9.7 km/h 94 % 0 in /  0.0 mm
19:17 60.3 °F /  15.7 °C 58.5 °F /  14.7 °C 30.1 in /  1020.5 hPa WSW 1 mph /  1.6 km/h 3 mph /  4.8 km/h 94 % 0 in /  0.0 mm
19:22 60.3 °F /  15.7 °C 58.5 °F /  14.7 °C 30.1 in /  1020.5 hPa Calm   3 mph /  4.8 km/h 94 % 0 in /  0.0 mm
19:32 60.1 °F /  15.6 °C 58.3 °F /  14.6 °C 30.1 in /  1020.5 hPa SW 2 mph /  3.2 km/h 3 mph /  4.8 km/h 94 % 0 in /  0.0 mm
19:37 60.1 °F /  15.6 °C 58.3 °F /  14.6 °C 30.1 in /  1020.5 hPa SW 2 mph /  3.2 km/h 4 mph /  6.4 km/h 94 % 0 in /  0.0 mm
19:42 60.1 °F /  15.6 °C 58.3 °F /  14.6 °C 30.1 in /  1020.5 hPa SW 3 mph /  4.8 km/h 4 mph /  6.4 km/h 94 % 0 in /  0.0 mm
19:47 60.1 °F /  15.6 °C 58.6 °F /  14.8 °C 30.1 in /  1020.5 hPa WSW 2 mph /  3.2 km/h 5 mph /  8.0 km/h 95 % 0 in /  0.0 mm
19:57 59.9 °F /  15.5 °C 58.5 °F /  14.7 °C 30.1 in /  1020.5 hPa WSW 4 mph /  6.4 km/h 5 mph /  8.0 km/h 95 % 0 in /  0.0 mm
20:02 59.9 °F /  15.5 °C 58.5 °F /  14.7 °C 30.1 in /  1020.5 hPa West 3 mph /  4.8 km/h 5 mph /  8.0 km/h 95 % 0 in /  0.0 mm
20:12 59.7 °F /  15.4 °C 58.3 °F /  14.6 °C 30.1 in /  1020.5 hPa West 1 mph /  1.6 km/h 5 mph /  8.0 km/h 95 % 0 in /  0.0 mm
20:17 59.7 °F /  15.4 °C 58.3 °F /  14.6 °C 30.1 in /  1020.5 hPa WSW 1 mph /  1.6 km/h 5 mph /  8.0 km/h 95 % 0 in /  0.0 mm
20:22 59.7 °F /  15.4 °C 58.3 °F /  14.6 °C 30.1 in /  1020.5 hPa SW 2 mph /  3.2 km/h 5 mph /  8.0 km/h 95 % 0 in /  0.0 mm
20:32 59.7 °F /  15.4 °C 58.3 °F /  14.6 °C 30.1 in /  1020.5 hPa WSW 1 mph /  1.6 km/h 5 mph /  8.0 km/h 95 % 0 in /  0.0 mm
20:37 59.7 °F /  15.4 °C 58.3 °F /  14.6 °C 30.1 in /  1020.5 hPa WSW 1 mph /  1.6 km/h 5 mph /  8.0 km/h 95 % 0 in /  0.0 mm
20:42 59.7 °F /  15.4 °C 58.6 °F /  14.8 °C 30.1 in /  1020.5 hPa West 1 mph /  1.6 km/h 5 mph /  8.0 km/h 96 % 0 in /  0.0 mm
20:52 59.7 °F /  15.4 °C 58.6 °F /  14.8 °C 30.2 in /  1020.9 hPa WSW 1 mph /  1.6 km/h 3 mph /  4.8 km/h 96 % 0 in /  0.0 mm
20:57 59.7 °F /  15.4 °C 58.6 °F /  14.8 °C 30.2 in /  1020.9 hPa Calm   3 mph /  4.8 km/h 96 % 0 in /  0.0 mm
21:02 59.7 °F /  15.4 °C 58.6 °F /  14.8 °C 30.2 in /  1020.9 hPa Calm   3 mph /  4.8 km/h 96 % 0 in /  0.0 mm
21:12 59.7 °F /  15.4 °C 58.6 °F /  14.8 °C 30.2 in /  1020.9 hPa Calm   3 mph /  4.8 km/h 96 % 0 in /  0.0 mm
21:17 59.5 °F /  15.3 °C 58.5 °F /  14.7 °C 30.2 in /  1020.9 hPa Calm     96 % 0 in /  0.0 mm
21:27 59.5 °F /  15.3 °C 58.5 °F /  14.7 °C 30.2 in /  1020.9 hPa Calm   1 mph /  1.6 km/h 96 % 0 in /  0.0 mm
21:32 59.5 °F /  15.3 °C 58.5 °F /  14.7 °C 30.2 in /  1020.9 hPa Calm   1 mph /  1.6 km/h 96 % 0 in /  0.0 mm
21:37 59.4 °F /  15.2 °C 58.3 °F /  14.6 °C 30.2 in /  1020.9 hPa SW 1 mph /  1.6 km/h   96 % 0 in /  0.0 mm
21:42 59.5 °F /  15.3 °C 58.5 °F /  14.7 °C 30.2 in /  1020.9 hPa Calm     96 % 0 in /  0.0 mm
21:47 59.5 °F /  15.3 °C 58.5 °F /  14.7 °C 30.2 in /  1020.9 hPa Calm   2 mph /  3.2 km/h 96 % 0 in /  0.0 mm
21:57 59.4 °F /  15.2 °C 58.3 °F /  14.6 °C 30.2 in /  1020.9 hPa Calm   2 mph /  3.2 km/h 96 % 0 in /  0.0 mm
22:02 59.4 °F /  15.2 °C 58.3 °F /  14.6 °C 30.2 in /  1020.9 hPa SSW 1 mph /  1.6 km/h 2 mph /  3.2 km/h 96 % 0 in /  0.0 mm
22:12 59.4 °F /  15.2 °C 58.3 °F /  14.6 °C 30.2 in /  1020.9 hPa SW 3 mph /  4.8 km/h 3 mph /  4.8 km/h 96 % 0 in /  0.0 mm
22:17 59.2 °F /  15.1 °C 58.1 °F /  14.5 °C 30.2 in /  1021.2 hPa SSW 1 mph /  1.6 km/h 4 mph /  6.4 km/h 96 % 0 in /  0.0 mm
22:22 59.2 °F /  15.1 °C 58.1 °F /  14.5 °C 30.2 in /  1021.2 hPa SSW 1 mph /  1.6 km/h 4 mph /  6.4 km/h 96 % 0 in /  0.0 mm
22:27 59 °F /  15.0 °C 57.9 °F /  14.4 °C 30.2 in /  1020.9 hPa SSW 1 mph /  1.6 km/h 4 mph /  6.4 km/h 96 % 0 in /  0.0 mm
22:32 58.8 °F /  14.9 °C 57.7 °F /  14.3 °C 30.2 in /  1020.9 hPa Calm   4 mph /  6.4 km/h 96 % 0 in /  0.0 mm
22:42 58.3 °F /  14.6 °C 57.2 °F /  14.0 °C 30.2 in /  1021.2 hPa Calm   2 mph /  3.2 km/h 96 % 0 in /  0.0 mm
22:47 58.3 °F /  14.6 °C 57.2 °F /  14.0 °C 30.2 in /  1020.9 hPa Calm     96 % 0 in /  0.0 mm
22:52 58.1 °F /  14.5 °C 57 °F /  13.9 °C 30.2 in /  1021.2 hPa Calm     96 % 0 in /  0.0 mm
22:57 58.1 °F /  14.5 °C 57 °F /  13.9 °C 30.2 in /  1021.2 hPa Calm     96 % 0 in /  0.0 mm
23:12 57.9 °F /  14.4 °C 56.8 °F /  13.8 °C 30.2 in /  1021.2 hPa Calm     96 % 0 in /  0.0 mm
23:17 57.9 °F /  14.4 °C 56.8 °F /  13.8 °C 30.2 in /  1021.2 hPa Calm     96 % 0 in /  0.0 mm
23:22 57.9 °F /  14.4 °C 57 °F /  13.9 °C 30.2 in /  1021.2 hPa Calm     97 % 0 in /  0.0 mm
23:32 57.7 °F /  14.3 °C 56.7 °F /  13.7 °C 30.2 in /  1021.2 hPa Calm     96 % 0 in /  0.0 mm
23:37 57.7 °F /  14.3 °C 56.8 °F /  13.8 °C 30.2 in /  1021.2 hPa Calm     97 % 0 in /  0.0 mm
23:42 57.7 °F /  14.3 °C 56.8 °F /  13.8 °C 30.2 in /  1021.2 hPa Calm     97 % 0 in /  0.0 mm
23:47 57.7 °F /  14.3 °C 56.8 °F /  13.8 °C 30.2 in /  1021.2 hPa Calm     97 % 0 in /  0.0 mm
23:52 57.7 °F /  14.3 °C 56.8 °F /  13.8 °C 30.2 in /  1021.2 hPa Calm     97 % 0 in /  0.0 mm
23:57 57.6 °F /  14.2 °C 56.5 °F /  13.6 °C 30.2 in /  1021.2 hPa Calm     96 % 0 in /  0.0 mm
Meteo18
Compliments of Weather Underground - 4 mb

Script developed by  Jim McMurry - jmcmurry@mwt.net Adapted for the template by  Wim van der Kuil - Leuven-Template.eu

You find our weather info also at:

European Weather Network

Weather Underground

Equipment we use:

Weather-station
Davis Vue

Weather-program
Meteohub

Weather-server
Raspberry PI 2 B+

Provider
1 and 1

Davis Vue

Meteohub

Raspberry PI 2 B+

1 and 1